Time;durP1;ratioP1;P1;durP2;ratioP2;P2;SDS_P1;SDS_P2;PMS_P1;PMS_P2;Temp;Humidity;BMP_temperature;BMP_pressure;BME280_temperature;BME280_humidity;BME280_pressure;Samples;Min_cycle;Max_cycle;Signal;HPM_P1;HPM_P2
2022/03/11 00:00:08;;;;;;;12.80;6.18;;;6.40;99.90;;;;;;5043237;28;20147;-81
2022/03/11 00:02:37;;;;;;;13.52;5.93;;;5.30;99.90;;;;;;5048302;28;20036;-81
2022/03/11 00:05:04;;;;;;;13.18;5.95;;;5.20;99.90;;;;;;5028443;28;20484;-81
2022/03/11 00:07:32;;;;;;;12.60;5.32;;;5.20;99.90;;;;;;5047156;28;20105;-81
2022/03/11 00:09:58;;;;;;;13.38;5.53;;;5.20;99.90;;;;;;5048466;28;20036;-81
2022/03/11 00:12:24;;;;;;;12.70;5.63;;;5.20;99.90;;;;;;5044855;28;20097;-82
2022/03/11 00:14:51;;;;;;;11.70;5.63;;;6.20;99.90;;;;;;5016919;28;20063;-81
2022/03/11 00:17:16;;;;;;;13.18;5.65;;;6.50;99.90;;;;;;5061601;28;20052;-81
2022/03/11 00:19:42;;;;;;;13.00;5.68;;;6.30;99.90;;;;;;5061761;28;20036;-81
2022/03/11 00:22:08;;;;;;;12.52;5.93;;;5.10;99.90;;;;;;5038329;28;20038;-81
2022/03/11 00:24:34;;;;;;;15.10;6.15;;;5.40;99.90;;;;;;5041319;28;20475;-81
2022/03/11 00:27:00;;;;;;;12.38;5.80;;;5.80;99.90;;;;;;5049182;28;20055;-81
2022/03/11 00:29:25;;;;;;;13.40;5.88;;;6.30;99.90;;;;;;5045349;28;20040;-82
2022/03/11 00:31:51;;;;;;;13.73;6.20;;;6.00;99.90;;;;;;5011911;28;20041;-81
2022/03/11 00:34:17;;;;;;;13.38;5.55;;;5.00;99.90;;;;;;5024518;28;20045;-81
2022/03/11 00:36:44;;;;;;;13.50;6.13;;;6.40;99.90;;;;;;4986762;28;20041;-81
2022/03/11 00:39:10;;;;;;;13.43;6.05;;;6.00;99.90;;;;;;5027798;28;20053;-81
2022/03/11 00:41:36;;;;;;;12.38;6.00;;;5.80;99.90;;;;;;5013189;28;20052;-82
2022/03/11 00:44:02;;;;;;;12.38;5.78;;;4.90;99.90;;;;;;4995930;28;20099;-82
2022/03/11 00:46:28;;;;;;;13.15;6.75;;;4.90;99.90;;;;;;4995004;28;20489;-82
2022/03/11 00:48:53;;;;;;;12.30;6.18;;;4.90;99.90;;;;;;5007054;28;20037;-82
2022/03/11 00:51:19;;;;;;;13.43;6.47;;;4.80;99.90;;;;;;5012787;28;20040;-83
2022/03/11 00:53:45;;;;;;;13.43;6.53;;;4.80;99.90;;;;;;5027225;28;20041;-82
2022/03/11 00:56:10;;;;;;;15.18;6.40;;;4.80;99.90;;;;;;4995619;28;20042;-83
2022/03/11 00:58:36;;;;;;;14.05;6.78;;;5.40;99.90;;;;;;4995851;28;20060;-82
2022/03/11 01:01:03;;;;;;;12.27;5.80;;;5.10;99.90;;;;;;4994900;28;20103;-83
2022/03/11 01:03:28;;;;;;;13.68;6.28;;;6.30;99.90;;;;;;5027633;28;20092;-83
2022/03/11 01:05:54;;;;;;;13.40;7.05;;;5.90;99.90;;;;;;4997210;28;20037;-82
2022/03/11 01:08:20;;;;;;;14.85;7.20;;;4.60;99.90;;;;;;5002858;28;20038;-83
2022/03/11 01:10:45;;;;;;;15.20;7.13;;;5.30;99.90;;;;;;5007000;28;20084;-83
2022/03/11 01:13:11;;;;;;;13.38;6.55;;;5.70;99.90;;;;;;5010309;28;20046;-81
2022/03/11 01:15:37;;;;;;;14.30;6.80;;;6.30;99.90;;;;;;4996771;28;20045;-81
2022/03/11 01:18:02;;;;;;;13.93;7.43;;;4.50;99.90;;;;;;4994710;28;20165;-82
2022/03/11 01:20:28;;;;;;;14.55;7.35;;;4.50;99.90;;;;;;5012061;28;20092;-82
2022/03/11 01:22:54;;;;;;;13.40;7.05;;;4.90;99.90;;;;;;5000491;28;20491;-82
2022/03/11 01:25:20;;;;;;;15.70;8.00;;;;;;;;;;5024905;28;20074;-81
2022/03/11 01:27:46;;;;;;;16.65;8.13;;;4.50;99.90;;;;;;5005065;28;20046;-81
2022/03/11 01:30:13;;;;;;;15.32;7.45;;;5.50;99.90;;;;;;5026494;28;20122;-82
2022/03/11 01:32:41;;;;;;;15.77;7.72;;;4.40;99.90;;;;;;4987261;28;20046;-81
2022/03/11 01:35:07;;;;;;;15.35;7.95;;;4.40;99.90;;;;;;5003898;28;20684;-81
2022/03/11 01:37:33;;;;;;;15.35;8.20;;;4.40;99.90;;;;;;5002817;28;20042;-82
2022/03/11 01:39:59;;;;;;;14.68;7.95;;;6.40;99.90;;;;;;5012698;28;20087;-81
2022/03/11 01:42:24;;;;;;;16.73;8.02;;;4.60;99.90;;;;;;5008466;28;20041;-81
2022/03/11 01:44:52;;;;;;;16.55;8.60;;;5.00;99.90;;;;;;4995279;28;20034;-81
2022/03/11 01:47:19;;;;;;;16.23;8.95;;;4.30;99.90;;;;;;5012041;28;20463;-81
2022/03/11 01:49:44;;;;;;;15.95;8.80;;;5.60;99.90;;;;;;5025350;28;20041;-81
2022/03/11 01:52:12;;;;;;;17.80;9.25;;;5.40;99.90;;;;;;5011820;28;20044;-82
2022/03/11 01:54:41;;;;;;;16.80;8.73;;;4.90;99.90;;;;;;5010385;28;20359;-82
2022/03/11 01:57:08;;;;;;;17.42;9.38;;;5.30;99.90;;;;;;5017563;28;20045;-81
2022/03/11 01:59:34;;;;;;;17.77;10.15;;;4.10;99.90;;;;;;5006085;28;20082;-82
2022/03/11 02:01:59;;;;;;;16.67;9.05;;;4.50;99.90;;;;;;5023199;28;20083;-82
2022/03/11 02:04:25;;;;;;;15.73;9.10;;;4.20;99.90;;;;;;5003740;28;20056;-81
2022/03/11 02:06:52;;;;;;;17.75;9.90;;;4.10;99.90;;;;;;5010758;28;20041;-82
2022/03/11 02:09:18;;;;;;;18.55;9.98;;;5.60;99.90;;;;;;5025234;28;20052;-82
2022/03/11 02:11:46;;;;;;;19.02;9.70;;;4.00;99.90;;;;;;4992234;28;20095;-81
2022/03/11 02:14:12;;;;;;;18.95;9.90;;;5.40;99.90;;;;;;4997049;28;20519;-82
2022/03/11 02:16:40;;;;;;;19.27;9.88;;;5.10;99.90;;;;;;5024587;28;20072;-82
2022/03/11 02:19:07;;;;;;;18.35;10.68;;;5.00;99.90;;;;;;4990503;28;20879;-82
2022/03/11 02:21:47;;;;;;;19.42;10.57;;;4.90;99.90;;;;;;5040750;28;20033;-82
2022/03/11 02:24:16;;;;;;;20.45;11.02;;;3.90;99.90;;;;;;5020957;28;20380;-82
2022/03/11 02:26:42;;;;;;;19.08;10.25;;;4.90;99.90;;;;;;5022514;28;20056;-82
2022/03/11 02:29:09;;;;;;;18.88;10.85;;;4.50;99.90;;;;;;5007722;28;20128;-82
2022/03/11 02:31:35;;;;;;;19.55;11.43;;;4.30;99.90;;;;;;5026991;28;20132;-82
2022/03/11 02:34:02;;;;;;;19.60;11.20;;;5.30;99.90;;;;;;5011449;28;20041;-81
2022/03/11 02:36:29;;;;;;;21.85;10.48;;;3.80;99.90;;;;;;5010211;28;20041;-82
2022/03/11 02:38:55;;;;;;;18.05;11.27;;;5.00;99.90;;;;;;5020880;28;20124;-81
2022/03/11 02:41:21;;;;;;;19.45;10.73;;;2.10;99.90;;;;;;5009236;28;20112;-81
2022/03/11 02:43:46;;;;;;;20.83;11.32;;;3.70;99.90;;;;;;5002023;28;20121;-82
2022/03/11 02:46:16;;;;;;;23.52;12.05;;;4.20;99.90;;;;;;5002898;28;20063;-81
2022/03/11 02:48:42;;;;;;;19.45;11.88;;;4.90;99.90;;;;;;5005367;28;20107;-81
2022/03/11 02:51:07;;;;;;;21.20;11.82;;;3.70;99.90;;;;;;5005637;28;20455;-81
2022/03/11 02:53:37;;;;;;;22.77;12.07;;;5.10;99.90;;;;;;4993147;28;20080;-81
2022/03/11 02:56:03;;;;;;;22.42;12.35;;;3.70;99.90;;;;;;5010894;28;20045;-82
2022/03/11 02:58:29;;;;;;;21.92;12.02;;;3.70;99.90;;;;;;5018502;28;20058;-82
2022/03/11 03:00:55;;;;;;;22.52;13.00;;;4.80;99.90;;;;;;4988299;28;20049;-81
2022/03/11 03:03:20;;;;;;;21.75;13.20;;;4.60;99.90;;;;;;5003504;28;20033;-81
2022/03/11 03:05:46;;;;;;;21.42;12.88;;;5.20;99.90;;;;;;5023619;28;20081;-81
2022/03/11 03:08:12;;;;;;;23.08;12.85;;;4.50;99.90;;;;;;5010317;28;20598;-81
2022/03/11 03:10:38;;;;;;;21.35;12.80;;;3.50;99.90;;;;;;5007470;28;20072;-82
2022/03/11 03:13:03;;;;;;;21.10;12.35;;;3.50;99.90;;;;;;4975625;28;20575;-82
2022/03/11 03:15:29;;;;;;;20.13;12.20;;;4.70;99.90;;;;;;5007695;28;20042;-81
2022/03/11 03:17:55;;;;;;;22.00;12.20;;;3.50;99.90;;;;;;4994519;28;20494;-81
2022/03/11 03:20:21;;;;;;;23.23;13.30;;;4.30;99.90;;;;;;4992500;28;20033;-81
2022/03/11 03:22:46;;;;;;;26.33;12.98;;;4.50;99.90;;;;;;4994010;28;20029;-81
2022/03/11 03:25:12;;;;;;;23.33;12.82;;;4.20;99.90;;;;;;5009078;28;20103;-81
2022/03/11 03:27:38;;;;;;;24.30;13.32;;;4.20;99.90;;;;;;5024390;28;20111;-81
2022/03/11 03:30:07;;;;;;;23.45;13.00;;;4.60;99.90;;;;;;5005156;28;20561;-81
2022/03/11 03:32:33;;;;;;;22.42;13.85;;;3.30;99.90;;;;;;5009197;28;20060;-82
2022/03/11 03:34:58;;;;;;;21.50;13.23;;;4.20;99.90;;;;;;5023928;28;20045;-83
2022/03/11 03:37:24;;;;;;;23.67;13.43;;;4.60;99.90;;;;;;4983863;28;20410;-81
2022/03/11 03:39:50;;;;;;;22.35;12.98;;;4.70;99.90;;;;;;5009871;28;20065;-81
2022/03/11 03:42:15;;;;;;;21.92;13.40;;;4.50;99.90;;;;;;4999497;28;20040;-81
2022/03/11 03:44:41;;;;;;;22.83;13.32;;;3.10;99.90;;;;;;5009605;28;20045;-82
2022/03/11 03:47:07;;;;;;;22.05;13.70;;;3.70;99.90;;;;;;5005864;28;20028;-82
2022/03/11 03:49:34;;;;;;;24.70;14.20;;;3.10;99.90;;;;;;5026506;28;20037;-81
2022/03/11 03:52:01;;;;;;;22.48;13.70;;;4.60;99.90;;;;;;4987282;28;20087;-81
2022/03/11 03:54:26;;;;;;;24.38;13.80;;;4.70;99.90;;;;;;5023923;28;20515;-81
2022/03/11 03:56:52;;;;;;;22.15;13.50;;;4.00;99.90;;;;;;4988349;28;20038;-81
2022/03/11 03:59:18;;;;;;;23.15;14.35;;;3.50;99.90;;;;;;5019587;28;20049;-81
2022/03/11 04:01:44;;;;;;;25.77;13.48;;;4.20;99.90;;;;;;5024112;28;20052;-81
2022/03/11 04:04:11;;;;;;;24.33;14.05;;;3.90;99.90;;;;;;5004163;28;20042;-81
2022/03/11 04:06:38;;;;;;;25.90;14.25;;;3.00;99.90;;;;;;5018860;28;20124;-81
2022/03/11 04:09:06;;;;;;;21.90;13.80;;;2.90;99.90;;;;;;5021846;28;20041;-82
2022/03/11 04:11:33;;;;;;;24.55;14.25;;;4.60;99.90;;;;;;5014976;28;20120;-81
2022/03/11 04:13:59;;;;;;;23.75;13.60;;;3.80;99.90;;;;;;5026405;28;20116;-81
2022/03/11 04:16:26;;;;;;;23.42;13.95;;;3.60;99.90;;;;;;4996442;28;20038;-82
2022/03/11 04:18:53;;;;;;;22.95;14.18;;;4.20;99.90;;;;;;5006216;28;20046;-81
2022/03/11 04:21:19;;;;;;;24.20;14.07;;;2.80;99.90;;;;;;5019629;28;20041;-81
2022/03/11 04:23:48;;;;;;;25.58;14.23;;;3.40;99.90;;;;;;5008011;28;20037;-82
2022/03/11 04:26:14;;;;;;;21.88;13.32;;;2.70;99.90;;;;;;5009822;28;20112;-82
2022/03/11 04:28:40;;;;;;;23.70;13.50;;;3.10;99.90;;;;;;4989016;28;20551;-81
2022/03/11 04:31:09;;;;;;;25.88;14.43;;;2.70;99.90;;;;;;4985767;28;20098;-81
2022/03/11 04:33:36;;;;;;;24.05;13.98;;;2.70;99.90;;;;;;5011805;28;20041;-81
2022/03/11 04:36:03;;;;;;;23.83;13.10;;;2.70;99.90;;;;;;4977545;28;20588;-82
2022/03/11 04:38:33;;;;;;;23.65;13.90;;;2.70;99.90;;;;;;5021871;28;20124;-81
2022/03/11 04:40:59;;;;;;;25.55;13.60;;;2.70;99.90;;;;;;5008411;28;20116;-81
2022/03/11 04:43:26;;;;;;;23.75;13.93;;;3.50;99.90;;;;;;4995472;28;20037;-81
2022/03/11 04:45:52;;;;;;;24.35;14.60;;;3.40;99.90;;;;;;4990175;28;20037;-81
2022/03/11 04:48:18;;;;;;;23.70;14.00;;;3.20;99.90;;;;;;4993868;28;20034;-81
2022/03/11 04:50:43;;;;;;;24.27;13.85;;;2.60;99.90;;;;;;4977093;28;20041;-82
2022/03/11 04:53:09;;;;;;;22.75;13.90;;;3.00;99.90;;;;;;4994316;28;20037;-81
2022/03/11 04:55:36;;;;;;;22.30;14.32;;;3.80;99.90;;;;;;5009459;28;20705;-82
2022/03/11 04:58:02;;;;;;;24.58;14.90;;;2.50;99.90;;;;;;5022741;28;20052;-81
2022/03/11 05:00:28;;;;;;;24.02;14.30;;;2.50;99.90;;;;;;5027841;28;20056;-81
2022/03/11 05:02:54;;;;;;;23.27;14.15;;;3.50;99.90;;;;;;5027883;28;20041;-81
2022/03/11 05:05:20;;;;;;;25.05;13.93;;;2.50;99.90;;;;;;5027245;28;20033;-81
2022/03/11 05:07:47;;;;;;;24.13;14.68;;;3.60;99.90;;;;;;5023402;28;20494;-81
2022/03/11 05:10:14;;;;;;;22.58;14.30;;;2.50;99.90;;;;;;5031235;28;20187;-81
2022/03/11 05:12:40;;;;;;;23.65;14.15;;;2.60;99.90;;;;;;5007794;28;20037;-82
2022/03/11 05:15:08;;;;;;;23.33;13.80;;;3.60;99.90;;;;;;5033224;28;20048;-82
2022/03/11 05:17:34;;;;;;;24.00;13.93;;;2.50;99.90;;;;;;5025421;28;20053;-81
2022/03/11 05:19:59;;;;;;;23.27;14.20;;;2.40;99.90;;;;;;5016033;28;20076;-81
2022/03/11 05:22:25;;;;;;;23.40;13.13;;;3.40;99.90;;;;;;5028205;28;20067;-82
2022/03/11 05:24:51;;;;;;;22.95;14.38;;;2.40;99.90;;;;;;5028163;28;20033;-81
2022/03/11 05:27:17;;;;;;;25.02;14.57;;;2.40;99.90;;;;;;5011775;28;20041;-82
2022/03/11 05:29:43;;;;;;;22.92;13.43;;;;;;;;;;5031061;28;20052;-82
2022/03/11 05:32:10;;;;;;;25.52;14.68;;;2.30;99.90;;;;;;5048694;28;20517;-81
2022/03/11 05:34:39;;;;;;;24.13;13.73;;;2.90;99.90;;;;;;5018166;28;20084;-82
2022/03/11 05:37:06;;;;;;;22.73;13.82;;;2.30;99.90;;;;;;5030483;28;20118;-81
2022/03/11 05:39:32;;;;;;;23.30;13.73;;;2.30;99.90;;;;;;5012710;28;20060;-81
2022/03/11 05:41:58;;;;;;;22.42;13.20;;;3.50;99.90;;;;;;5014139;28;20102;-82
2022/03/11 05:44:24;;;;;;;23.65;14.02;;;2.90;99.90;;;;;;5031090;28;20067;-81
2022/03/11 05:46:52;;;;;;;23.75;14.25;;;3.70;99.90;;;;;;5028081;28;20068;-82
2022/03/11 05:49:18;;;;;;;24.77;14.40;;;3.30;99.90;;;;;;5027901;28;20045;-82
2022/03/11 05:51:44;;;;;;;24.90;14.68;;;2.30;99.90;;;;;;5012255;28;20120;-81
2022/03/11 05:54:09;;;;;;;24.65;14.23;;;3.80;99.90;;;;;;5026868;28;20124;-81
2022/03/11 05:56:37;;;;;;;23.58;14.23;;;2.30;99.90;;;;;;5030897;28;20033;-81
2022/03/11 05:59:04;;;;;;;24.67;14.30;;;3.60;99.90;;;;;;5013455;28;20049;-81
2022/03/11 06:01:29;;;;;;;25.35;14.27;;;3.50;99.90;;;;;;5049237;28;20429;-81
2022/03/11 06:03:55;;;;;;;23.60;14.05;;;2.20;99.90;;;;;;4984008;28;20099;-81
2022/03/11 06:06:21;;;;;;;23.73;13.35;;;2.30;99.90;;;;;;5015407;28;20099;-81
2022/03/11 06:08:47;;;;;;;25.80;14.10;;;2.90;99.90;;;;;;4982135;28;20041;-81
2022/03/11 06:11:12;;;;;;;23.55;14.07;;;2.30;99.90;;;;;;5020226;28;20048;-82
2022/03/11 06:13:38;;;;;;;23.20;13.05;;;3.70;99.90;;;;;;5015791;28;20041;-81
2022/03/11 06:16:04;;;;;;;24.33;14.30;;;2.40;99.90;;;;;;5014258;28;20537;-81
2022/03/11 06:18:30;;;;;;;23.73;13.77;;;2.40;99.90;;;;;;5030382;28;20041;-81
2022/03/11 06:20:56;;;;;;;22.02;12.98;;;2.30;99.90;;;;;;5028624;28;20099;-81
2022/03/11 06:23:25;;;;;;;23.85;13.77;;;2.40;99.90;;;;;;5012312;28;20033;-81
2022/03/11 06:25:51;;;;;;;23.98;14.38;;;3.00;99.90;;;;;;5030265;28;20106;-80
2022/03/11 06:28:17;;;;;;;25.63;15.07;;;2.40;99.90;;;;;;5029676;28;20498;-81
2022/03/11 06:30:46;;;;;;;25.10;14.07;;;3.90;99.90;;;;;;5009282;28;20098;-81
2022/03/11 06:33:12;;;;;;;24.08;13.55;;;3.40;99.90;;;;;;5016352;28;20056;-81
2022/03/11 06:35:38;;;;;;;26.45;14.45;;;4.10;99.90;;;;;;5008407;28;20045;-81
2022/03/11 06:38:04;;;;;;;24.63;13.43;;;2.50;99.90;;;;;;5023752;28;20038;-82
2022/03/11 06:40:30;;;;;;;23.00;13.63;;;2.40;99.90;;;;;;4999500;28;20037;-81
2022/03/11 06:42:55;;;;;;;24.95;13.70;;;3.40;99.90;;;;;;5007564;28;20116;-81
2022/03/11 06:45:21;;;;;;;22.83;13.90;;;2.80;99.90;;;;;;5015420;28;20412;-81
2022/03/11 06:47:48;;;;;;;23.15;13.20;;;2.60;99.90;;;;;;5028745;28;20056;-81
2022/03/11 06:50:15;;;;;;;23.65;13.20;;;2.60;99.90;;;;;;5007602;28;20098;-81
2022/03/11 06:52:41;;;;;;;25.10;13.35;;;3.80;99.90;;;;;;5002571;28;20464;-80
2022/03/11 06:55:07;;;;;;;24.48;13.38;;;2.70;99.90;;;;;;5029198;28;20101;-81
2022/03/11 06:57:34;;;;;;;25.02;13.55;;;2.80;99.90;;;;;;5029803;28;20033;-83
2022/03/11 07:00:00;;;;;;;24.38;13.80;;;2.90;99.90;;;;;;5028400;28;20087;-81
2022/03/11 07:02:26;;;;;;;23.27;13.38;;;2.90;99.90;;;;;;5023417;28;20632;-81
2022/03/11 07:04:52;;;;;;;22.05;12.90;;;3.00;99.90;;;;;;5027648;28;20045;-82
2022/03/11 07:07:18;;;;;;;22.77;13.65;;;3.10;99.90;;;;;;5009703;28;20090;-81
2022/03/11 07:09:43;;;;;;;23.30;13.82;;;3.10;99.90;;;;;;4990341;28;20040;-82
2022/03/11 07:12:09;;;;;;;23.35;13.45;;;4.00;99.90;;;;;;4994316;28;20430;-81
2022/03/11 07:14:36;;;;;;;23.23;13.30;;;3.30;99.90;;;;;;5020405;28;20041;-81
2022/03/11 07:17:06;;;;;;;25.45;14.85;;;4.50;99.90;;;;;;5024815;28;20037;-81
2022/03/11 07:19:33;;;;;;;23.20;13.32;;;3.50;99.90;;;;;;5020587;28;20041;-81
2022/03/11 07:22:02;;;;;;;23.30;13.52;;;3.60;99.90;;;;;;5045850;28;20636;-81
2022/03/11 07:24:28;;;;;;;24.05;13.45;;;5.10;99.90;;;;;;5009978;28;20756;-81
2022/03/11 07:26:55;;;;;;;24.10;13.30;;;4.80;99.90;;;;;;5006393;28;20079;-81
2022/03/11 07:29:20;;;;;;;22.85;12.93;;;3.80;99.90;;;;;;5002874;28;20100;-81
2022/03/11 07:31:46;;;;;;;24.92;13.57;;;4.80;99.90;;;;;;5006920;28;20025;-81
2022/03/11 07:34:12;;;;;;;22.92;13.52;;;4.50;99.90;;;;;;5009668;28;20449;-81
2022/03/11 07:36:38;;;;;;;23.52;13.52;;;4.00;99.90;;;;;;5022814;28;20055;-81
2022/03/11 07:39:05;;;;;;;23.95;13.23;;;4.10;99.90;;;;;;5026646;28;20432;-81
2022/03/11 07:41:32;;;;;;;22.63;13.35;;;4.20;99.90;;;;;;5029432;28;20033;-81
2022/03/11 07:43:58;;;;;;;23.73;12.63;;;5.60;99.90;;;;;;5012648;28;20064;-81
2022/03/11 07:46:25;;;;;;;23.42;12.77;;;5.20;99.90;;;;;;5027174;28;20037;-81
2022/03/11 07:48:51;;;;;;;22.45;12.82;;;5.20;99.90;;;;;;4987761;28;20033;-81
2022/03/11 07:51:17;;;;;;;23.80;13.23;;;4.50;99.90;;;;;;5008229;28;20459;-80
2022/03/11 07:53:43;;;;;;;22.25;13.05;;;5.60;99.90;;;;;;5012235;28;20037;-81
2022/03/11 07:56:13;;;;;;;22.33;13.35;;;5.40;99.90;;;;;;5008630;28;20414;-81
2022/03/11 07:58:41;;;;;;;23.98;13.32;;;4.80;99.90;;;;;;5013822;28;20107;-81
2022/03/11 08:01:09;;;;;;;23.20;13.50;;;4.90;99.90;;;;;;5024735;28;20052;-81
2022/03/11 08:03:37;;;;;;;22.85;12.93;;;5.00;99.90;;;;;;5029756;28;20037;-81
2022/03/11 08:06:04;;;;;;;21.52;13.02;;;5.00;99.90;;;;;;5011754;28;20037;-81
2022/03/11 08:08:30;;;;;;;21.88;13.10;;;5.10;99.90;;;;;;5025720;28;20087;-81
2022/03/11 08:10:56;;;;;;;21.08;12.50;;;5.30;99.90;;;;;;5028116;28;20393;-81
2022/03/11 08:13:22;;;;;;;23.73;12.32;;;5.30;99.90;;;;;;5030921;28;20037;-81
2022/03/11 08:15:48;;;;;;;25.58;13.93;;;6.90;99.90;;;;;;4992391;28;20041;-81
2022/03/11 08:18:14;;;;;;;20.30;12.30;;;5.40;99.90;;;;;;5020784;28;20120;-80
2022/03/11 08:20:41;;;;;;;21.40;12.30;;;5.50;99.90;;;;;;5013028;28;20033;-81
2022/03/11 08:23:08;;;;;;;21.40;12.63;;;6.00;99.90;;;;;;5045158;28;20609;-80
2022/03/11 08:25:35;;;;;;;23.15;13.25;;;5.60;99.90;;;;;;5027990;28;20103;-80
2022/03/11 08:28:01;;;;;;;22.50;12.90;;;6.00;99.90;;;;;;5008072;28;20136;-81
2022/03/11 08:30:27;;;;;;;20.55;12.18;;;5.90;99.90;;;;;;4986585;28;20120;-82
2022/03/11 08:32:53;;;;;;;21.20;12.32;;;6.00;99.90;;;;;;5026966;28;20311;-82
2022/03/11 08:35:20;;;;;;;21.08;12.45;;;6.00;99.90;;;;;;5013790;28;20084;-82
2022/03/11 08:37:46;;;;;;;20.23;12.13;;;6.10;99.90;;;;;;5005467;28;20060;-81
2022/03/11 08:40:13;;;;;;;24.73;12.40;;;6.20;99.90;;;;;;4972365;28;20041;-82
2022/03/11 08:42:40;;;;;;;20.83;12.55;;;6.30;99.90;;;;;;5011649;28;20494;-82
2022/03/11 08:45:10;;;;;;;22.20;12.63;;;6.40;99.90;;;;;;5005464;28;20045;-81
2022/03/11 08:47:36;;;;;;;21.58;12.73;;;6.50;99.90;;;;;;5045090;28;20033;-81
2022/03/11 08:50:05;;;;;;;20.20;12.20;;;6.50;99.90;;;;;;5016853;28;20083;-82
2022/03/11 08:52:31;;;;;;;24.25;13.30;;;6.60;99.90;;;;;;5025230;28;20369;-82
2022/03/11 08:54:57;;;;;;;22.05;12.40;;;6.70;99.90;;;;;;5011962;28;20140;-81
2022/03/11 08:57:24;;;;;;;22.30;12.50;;;6.80;99.90;;;;;;5026604;28;20075;-83
2022/03/11 08:59:50;;;;;;;21.30;12.73;;;6.80;99.90;;;;;;5009209;28;20085;-81
2022/03/11 09:02:16;;;;;;;23.88;12.65;;;6.90;99.90;;;;;;5005202;28;20127;-82
2022/03/11 09:04:42;;;;;;;21.10;12.40;;;7.00;99.90;;;;;;5007602;28;20037;-81
2022/03/11 09:07:09;;;;;;;23.67;12.65;;;7.00;99.90;;;;;;4989193;28;20517;-82
2022/03/11 09:09:36;;;;;;;21.55;13.10;;;7.00;99.90;;;;;;5013166;28;20083;-82
2022/03/11 09:12:03;;;;;;;20.45;12.23;;;7.00;99.90;;;;;;4994624;28;20132;-82
2022/03/11 09:14:30;;;;;;;21.13;12.43;;;7.10;99.90;;;;;;5017954;28;20195;-81
2022/03/11 09:16:56;;;;;;;21.45;12.82;;;8.00;99.90;;;;;;4998298;28;20037;-82
2022/03/11 09:19:22;;;;;;;19.67;11.77;;;8.60;99.90;;;;;;5010577;28;20485;-82
2022/03/11 09:21:48;;;;;;;20.75;12.23;;;7.50;99.90;;;;;;5008419;28;20029;-82
2022/03/11 09:24:14;;;;;;;22.27;12.65;;;8.10;99.90;;;;;;5019898;28;20041;-81
2022/03/11 09:26:40;;;;;;;22.58;13.02;;;8.30;99.90;;;;;;5006546;28;20043;-82
2022/03/11 09:29:06;;;;;;;21.10;12.73;;;7.50;99.90;;;;;;4986926;28;20121;-81
2022/03/11 09:31:34;;;;;;;20.50;11.80;;;7.60;99.90;;;;;;5025103;28;20156;-81
2022/03/11 09:34:00;;;;;;;20.92;11.90;;;8.30;99.90;;;;;;4993056;28;20098;-82
2022/03/11 09:36:26;;;;;;;20.73;12.50;;;7.60;99.90;;;;;;4988927;28;20071;-81
2022/03/11 09:38:52;;;;;;;21.80;11.85;;;7.70;99.90;;;;;;5015015;28;20042;-81
2022/03/11 09:41:20;;;;;;;21.30;12.52;;;7.70;99.90;;;;;;5004119;28;20112;-81
2022/03/11 09:43:45;;;;;;;20.63;11.95;;;7.80;99.90;;;;;;4994029;28;20529;-81
2022/03/11 09:46:13;;;;;;;20.83;11.82;;;7.90;99.90;;;;;;4996342;28;20114;-82
2022/03/11 09:48:41;;;;;;;23.00;12.20;;;8.00;99.90;;;;;;5026430;28;20449;-82
2022/03/11 09:51:11;;;;;;;19.85;12.57;;;8.00;99.90;;;;;;5008715;28;20099;-82
2022/03/11 09:53:37;;;;;;;20.35;12.27;;;8.10;99.90;;;;;;5011024;28;20605;-81
2022/03/11 09:56:04;;;;;;;21.15;12.77;;;8.10;99.90;;;;;;5014234;28;20114;-83
2022/03/11 09:58:29;;;;;;;21.02;12.70;;;8.20;99.90;;;;;;5021125;28;20387;-82
2022/03/11 10:00:55;;;;;;;21.33;12.45;;;8.30;99.90;;;;;;4994360;28;20048;-82
2022/03/11 10:03:22;;;;;;;20.50;12.57;;;8.40;99.90;;;;;;5007682;28;20030;-82
2022/03/11 10:05:53;;;;;;;19.80;11.90;;;9.00;99.90;;;;;;5007682;28;20037;-81
2022/03/11 10:08:36;;;;;;;21.77;13.05;;;8.40;99.90;;;;;;5025823;28;20042;-81
2022/03/11 10:11:23;;;;;;;18.92;11.50;;;8.50;99.90;;;;;;5027896;28;20091;-82
2022/03/11 10:13:53;;;;;;;20.10;12.00;;;8.50;99.90;;;;;;5006502;28;20541;-82
2022/03/11 10:16:25;;;;;;;21.70;12.65;;;8.60;99.90;;;;;;5023382;28;20053;-82
2022/03/11 10:18:58;;;;;;;21.98;11.55;;;8.70;99.90;;;;;;5023509;28;20075;-81
2022/03/11 10:21:29;;;;;;;20.75;12.40;;;8.70;99.90;;;;;;5026007;28;20129;-81
2022/03/11 10:23:55;;;;;;;20.08;11.32;;;8.80;99.90;;;;;;5024186;28;20568;-82
2022/03/11 10:26:55;;;;;;;20.73;11.13;;;8.70;99.90;;;;;;4968569;28;20132;-83
2022/03/11 10:29:27;;;;;;;19.60;11.23;;;8.80;99.90;;;;;;4996770;28;20049;-83
2022/03/11 10:31:58;;;;;;;21.83;11.82;;;8.80;99.90;;;;;;5018550;28;20049;-82
2022/03/11 10:34:29;;;;;;;22.85;11.43;;;8.90;99.90;;;;;;5027718;28;20065;-82
2022/03/11 10:37:01;;;;;;;23.25;12.68;;;9.00;99.90;;;;;;5023811;28;20069;-82
2022/03/11 10:39:32;;;;;;;20.85;11.20;;;9.00;99.90;;;;;;5009597;28;20088;-82
2022/03/11 10:42:17;;;;;;;21.27;12.02;;;8.90;99.90;;;;;;5025063;28;20117;-82
2022/03/11 10:45:01;;;;;;;21.63;11.75;;;8.90;99.90;;;;;;5023742;28;20044;-82
2022/03/11 10:47:29;;;;;;;19.67;11.38;;;9.00;99.90;;;;;;5003524;28;20044;-83
2022/03/11 10:49:58;;;;;;;19.55;11.15;;;9.10;99.90;;;;;;5023570;28;20033;-82
2022/03/11 10:52:36;;;;;;;20.52;11.75;;;9.10;99.90;;;;;;5000180;28;20111;-83
2022/03/11 10:55:23;;;;;;;18.23;10.73;;;9.20;99.90;;;;;;5022865;28;20046;-82
2022/03/11 10:57:53;;;;;;;19.95;11.05;;;9.20;99.90;;;;;;5022767;28;20056;-82
2022/03/11 11:00:25;;;;;;;19.25;11.38;;;9.30;99.90;;;;;;5026589;28;20133;-83
2022/03/11 11:02:58;;;;;;;19.70;11.20;;;9.30;99.90;;;;;;5006142;28;20394;-82
2022/03/11 11:05:26;;;;;;;17.08;10.82;;;9.40;99.90;;;;;;4997698;28;20289;-81
2022/03/11 11:07:53;;;;;;;19.80;11.38;;;9.40;99.90;;;;;;5024686;28;20052;-82
2022/03/11 11:10:22;;;;;;;18.73;11.77;;;9.50;99.90;;;;;;5001095;28;20049;-82
2022/03/11 11:12:49;;;;;;;19.48;11.73;;;9.50;99.90;;;;;;5007617;28;20495;-82
2022/03/11 11:15:15;;;;;;;20.45;10.85;;;9.50;99.90;;;;;;5008466;28;20544;-83
2022/03/11 11:17:49;;;;;;;20.05;11.65;;;9.60;99.90;;;;;;5010878;28;20041;-82
2022/03/11 11:20:33;;;;;;;19.95;10.95;;;9.60;99.90;;;;;;5012070;28;20044;-82
2022/03/11 11:23:04;;;;;;;18.25;10.85;;;9.60;99.10;;;;;;5027686;28;20144;-83
2022/03/11 11:25:30;;;;;;;17.73;10.68;;;9.70;99.90;;;;;;5024525;28;20033;-82
2022/03/11 11:27:59;;;;;;;20.83;10.85;;;9.70;99.90;;;;;;5006174;28;20060;-82
2022/03/11 11:30:26;;;;;;;18.90;10.80;;;9.70;99.80;;;;;;5019852;28;20135;-82
2022/03/11 11:32:54;;;;;;;18.27;10.82;;;9.80;99.90;;;;;;5000251;28;20034;-82
2022/03/11 11:35:23;;;;;;;18.25;10.82;;;9.90;99.90;;;;;;5010538;28;20147;-82
2022/03/11 11:37:48;;;;;;;20.67;11.77;;;9.80;95.90;;;;;;5011105;28;20053;-82
2022/03/11 11:40:34;;;;;;;18.90;10.57;;;9.90;98.90;;;;;;5027484;28;20034;-82
2022/03/11 11:43:16;;;;;;;18.92;11.57;;;10.00;92.10;;;;;;5027217;28;20063;-82
2022/03/11 11:45:44;;;;;;;18.27;10.60;;;10.10;94.60;;;;;;5002508;28;20037;-82
2022/03/11 11:48:32;;;;;;;18.70;10.60;;;10.10;97.50;;;;;;5002253;28;20045;-82
2022/03/11 11:51:08;;;;;;;17.17;10.50;;;10.30;90.40;;;;;;5023282;28;20578;-82
2022/03/11 11:53:56;;;;;;;18.15;10.50;;;10.30;93.20;;;;;;5024187;28;20041;-83
2022/03/11 11:56:34;;;;;;;19.35;11.05;;;10.30;77.80;;;;;;5009051;28;20080;-81
2022/03/11 11:59:03;;;;;;;17.65;10.10;;;10.40;80.20;;;;;;5024165;28;20418;-82
2022/03/11 12:01:49;;;;;;;18.10;11.15;;;10.40;87.40;;;;;;5006099;28;20050;-82
2022/03/11 12:04:27;;;;;;;16.77;10.02;;;10.50;82.30;;;;;;5004708;28;20045;-81
2022/03/11 12:07:04;;;;;;;17.13;10.43;;;10.60;80.90;;;;;;4999300;28;20038;-81
2022/03/11 12:09:42;;;;;;;18.60;10.85;;;10.60;84.20;;;;;;4984024;28;20045;-82
2022/03/11 12:12:20;;;;;;;17.25;9.95;;;10.60;77.00;;;;;;5021241;28;20552;-82
2022/03/11 12:14:58;;;;;;;18.20;10.15;;;10.70;81.80;;;;;;5019822;28;20606;-82
2022/03/11 12:17:36;;;;;;;18.98;10.40;;;10.80;77.70;;;;;;5027992;28;20042;-81
2022/03/11 12:20:21;;;;;;;17.13;10.52;;;10.80;74.70;;;;;;5012770;28;20123;-83
2022/03/11 12:23:03;;;;;;;18.58;10.65;;;10.80;70.80;;;;;;5030655;28;20025;-81
2022/03/11 12:25:50;;;;;;;15.90;9.43;;;10.90;74.30;;;;;;5013882;28;20041;-82
2022/03/11 12:28:25;;;;;;;15.77;9.68;;;10.90;70.40;;;;;;5008560;28;20138;-82
2022/03/11 12:30:50;;;;;;;19.70;10.32;;;10.80;72.10;;;;;;5023709;28;20065;-82
2022/03/11 12:33:22;;;;;;;17.05;9.82;;;11.30;73.20;;;;;;5027422;28;20122;-83
2022/03/11 12:35:52;;;;;;;18.80;9.95;;;10.90;71.60;;;;;;5012997;28;20041;-82
2022/03/11 12:38:21;;;;;;;17.35;10.05;;;10.90;71.20;;;;;;5026409;28;20034;-82
2022/03/11 12:40:48;;;;;;;18.08;10.43;;;10.90;70.10;;;;;;5022765;28;20834;-82